Time;durP1;ratioP1;P1;durP2;ratioP2;P2;SDS_P1;SDS_P2;PMS_P1;PMS_P2;Temp;Humidity;BMP_temperature;BMP_pressure;BME280_temperature;BME280_humidity;BME280_pressure;Samples;Min_cycle;Max_cycle;Signal;HPM_P1;HPM_P2
2022/06/22 00:01:38;;;;;;;1.58;0.98;;;;;;;16.48;56.32;100056.03;5530039;32;33981;-67
2022/06/22 00:04:44;;;;;;;;;;;;;;;16.41;56.73;100057.09;5530685;32;33937;-67
2022/06/22 00:07:57;;;;;;;2.35;1.02;;;;;;;16.34;57.16;100043.75;5531062;32;35114;-68
2022/06/22 00:11:15;;;;;;;1.65;0.90;;;;;;;16.47;56.74;100042.84;5531408;32;34558;-67
2022/06/22 00:14:24;;;;;;;1.10;0.93;;;;;;;16.42;57.09;100035.44;5531352;32;33970;-67
2022/06/22 00:17:37;;;;;;;3.80;1.00;;;;;;;16.64;56.90;100044.03;5531021;32;35178;-67
2022/06/22 00:20:39;;;;;;;2.10;1.10;;;;;;;16.68;57.04;100041.72;5531118;32;33997;-67
2022/06/22 00:23:45;;;;;;;2.85;0.95;;;;;;;16.68;57.22;100036.38;5530586;32;33952;-68
2022/06/22 00:26:54;;;;;;;1.98;1.10;;;;;;;16.78;56.47;100044.75;5530964;32;34376;-67
2022/06/22 00:30:21;;;;;;;1.45;0.85;;;;;;;16.96;55.35;100052.88;5530724;32;33922;-68
2022/06/22 00:33:24;;;;;;;1.25;0.90;;;;;;;17.03;55.29;100063.56;5530881;32;34610;-67
2022/06/22 00:36:34;;;;;;;1.52;1.00;;;;;;;16.82;55.62;100054.00;5530131;32;32371;-66
2022/06/22 00:39:41;;;;;;;1.77;1.02;;;;;;;16.83;56.47;100051.13;5529932;32;34081;-68
2022/06/22 00:42:50;;;;;;;1.40;0.98;;;;;;;16.69;56.44;100049.56;5530702;32;33960;-68
2022/06/22 00:45:52;;;;;;;0.82;0.73;;;;;;;16.68;56.21;100050.59;5530662;32;33946;-66
2022/06/22 00:48:55;;;;;;;1.75;0.95;;;;;;;16.68;56.09;100050.59;5529993;32;32539;-66
2022/06/22 00:52:07;;;;;;;2.25;0.82;;;;;;;16.66;56.33;100055.31;5530667;32;33986;-67
2022/06/22 00:55:25;;;;;;;1.83;1.00;;;;;;;16.58;57.03;100044.88;5530617;32;34053;-67
2022/06/22 00:59:13;;;;;;;3.05;1.10;;;;;;;16.46;57.30;100052.72;5529551;32;32648;-66
2022/06/22 01:02:26;;;;;;;1.80;1.02;;;;;;;16.38;57.65;100046.81;5530633;32;35207;-67
2022/06/22 01:05:36;;;;;;;1.80;1.15;;;;;;;16.29;58.44;100051.59;5530313;32;34008;-66
2022/06/22 01:09:03;;;;;;;1.67;1.08;;;;;;;16.22;59.51;100049.94;5530303;32;34104;-67
2022/06/22 01:12:17;;;;;;;1.12;1.02;;;;;;;16.15;59.37;100043.81;5530054;32;34261;-67
2022/06/22 01:15:30;;;;;;;1.35;0.82;;;;;;;16.07;60.19;100051.03;5532339;32;33982;-67
2022/06/22 01:19:00;;;;;;;1.33;0.98;;;;;;;16.01;60.58;100048.41;5532599;32;33909;-67
2022/06/22 01:22:19;;;;;;;1.85;1.10;;;;;;;15.93;61.01;100048.62;5526909;32;33881;-67
2022/06/22 01:25:26;;;;;;;3.37;0.90;;;;;;;15.88;61.07;100056.44;5532535;32;34658;-67
2022/06/22 01:28:29;;;;;;;2.05;1.30;;;;;;;15.96;62.15;100048.22;5532478;32;34025;-66
2022/06/22 01:31:34;;;;;;;1.75;1.00;;;;;;;15.86;62.45;100050.50;5532443;32;34329;-67
2022/06/22 01:34:43;;;;;;;2.60;1.10;;;;;;;15.77;62.68;100047.25;5532567;32;33976;-67
2022/06/22 01:37:46;;;;;;;1.85;1.10;;;;;;;15.70;63.03;100035.72;5532456;32;33985;-67
2022/06/22 01:41:17;;;;;;;1.85;1.10;;;;;;;15.68;63.34;100045.81;5532425;32;34462;-67
2022/06/22 01:44:46;;;;;;;1.92;1.20;;;;;;;15.64;63.12;100048.06;5531726;32;32829;-67
2022/06/22 01:48:00;;;;;;;1.62;1.10;;;;;;;15.59;63.97;100039.03;5532490;32;34695;-67
2022/06/22 01:51:25;;;;;;;1.40;1.10;;;;;;;15.56;64.16;100031.44;5532242;32;35256;-67
2022/06/22 01:54:37;;;;;;;3.53;1.20;;;;;;;15.52;64.25;100035.56;5532412;32;33864;-67
2022/06/22 01:57:47;;;;;;;2.40;1.20;;;;;;;15.54;65.12;100028.97;5532187;32;34620;-67
2022/06/22 02:01:00;;;;;;;4.22;1.35;;;;;;;15.48;64.63;100034.31;5528543;32;119253;-67
2022/06/22 02:04:33;;;;;;;3.53;1.20;;;;;;;15.46;65.11;100045.19;5532640;32;32315;-67
2022/06/22 02:07:58;;;;;;;2.28;1.10;;;;;;;15.44;65.17;100046.44;5532130;32;35279;-67
2022/06/22 02:11:12;;;;;;;2.67;1.20;;;;;;;15.44;65.94;100046.44;5532153;32;33853;-66
2022/06/22 02:14:22;;;;;;;2.25;1.30;;;;;;;15.41;65.84;100053.00;5532100;32;34008;-67
2022/06/22 02:17:26;;;;;;;;;;;;;;;15.42;65.55;100048.50;5532193;32;35576;-66
2022/06/22 02:20:35;;;;;;;4.95;1.95;;;;;;;15.41;65.89;100053.00;5532431;32;34927;-67
2022/06/22 02:23:38;;;;;;;5.15;1.35;;;;;;;15.42;66.10;100065.34;5531997;32;34051;-67
2022/06/22 02:26:52;;;;;;;3.15;1.58;;;;;;;15.38;66.71;100065.97;5531971;32;34658;-67
2022/06/22 02:30:00;;;;;;;5.20;1.33;;;;;;;15.37;66.45;100065.16;5532254;32;34619;-67
2022/06/22 02:33:05;;;;;;;5.60;1.10;;;;;;;15.41;66.14;100068.22;5531865;32;35251;-67
2022/06/22 02:36:10;;;;;;;2.22;1.23;;;;;;;15.38;66.15;100082.00;5531884;32;34148;-67
2022/06/22 02:39:14;;;;;;;2.35;1.20;;;;;;;15.39;66.29;100095.19;5531838;32;33948;-67
2022/06/22 02:45:43;;;;;;;3.40;1.42;;;;;;;15.41;65.90;100073.56;5531782;32;33916;-67
2022/06/22 02:48:52;;;;;;;4.00;1.33;;;;;;;15.48;66.70;100069.88;5531783;32;34114;-67
2022/06/22 02:51:58;;;;;;;2.35;1.30;;;;;;;15.47;66.90;100070.06;5530959;32;33904;-67
2022/06/22 02:55:01;;;;;;;1.67;1.20;;;;;;;15.48;67.52;100079.75;5531795;32;33952;-67
2022/06/22 02:58:31;;;;;;;1.50;1.25;;;;;;;15.46;67.54;100085.28;5531733;32;33947;-67
2022/06/22 03:01:34;;;;;;;1.95;1.35;;;;;;;15.48;68.71;100088.59;5531641;32;34701;-68
2022/06/22 03:04:42;;;;;;;1.87;1.17;;;;;;;15.44;68.81;100094.56;5531991;32;35288;-68
2022/06/22 03:07:50;;;;;;;4.55;1.52;;;;;;;15.44;69.15;100102.59;5531730;32;34578;-68
2022/06/22 03:11:01;;;;;;;2.70;1.20;;;;;;;15.46;69.20;100089.81;5530810;32;34579;-68
2022/06/22 03:14:27;;;;;;;2.47;1.40;;;;;;;15.51;69.13;100092.72;5531640;32;34610;-68
2022/06/22 03:17:38;;;;;;;2.97;1.20;;;;;;;15.50;69.29;100102.56;5531603;32;34634;-68
2022/06/22 03:20:51;;;;;;;4.12;1.23;;;;;;;15.72;68.79;100099.72;5531362;32;34503;-67
2022/06/22 03:24:26;;;;;;;2.25;1.30;;;;;;;16.07;66.80;100106.44;5531402;32;34062;-68
2022/06/22 03:27:33;;;;;;;1.87;1.12;;;;;;;15.96;66.37;100105.22;5531504;32;34322;-68
2022/06/22 03:30:46;;;;;;;2.60;1.50;;;;;;;15.96;66.17;100125.81;5531444;32;34076;-67
2022/06/22 03:34:00;;;;;;;2.83;1.48;;;;;;;15.89;65.90;100107.06;5531400;32;34660;-68
2022/06/22 03:37:39;;;;;;;2.15;1.35;;;;;;;15.96;64.48;100112.44;5530659;32;34671;-68
2022/06/22 03:40:58;;;;;;;1.60;1.23;;;;;;;16.23;64.81;100118.53;5531474;32;35205;-68
2022/06/22 03:44:27;;;;;;;3.50;1.50;;;;;;;16.28;63.81;100114.19;5531334;32;34665;-68
2022/06/22 03:47:55;;;;;;;2.95;1.30;;;;;;;16.49;60.50;100115.75;5531689;32;33355;-68
2022/06/22 03:51:16;;;;;;;4.43;1.40;;;;;;;16.76;59.71;100121.81;5531202;32;34085;-68
2022/06/22 03:54:27;;;;;;;2.58;1.42;;;;;;;16.87;58.25;100116.62;5531549;32;35322;-68
2022/06/22 03:57:36;;;;;;;2.85;1.33;;;;;;;16.87;58.46;100099.72;5531227;32;34615;-68
2022/06/22 04:00:42;;;;;;;2.42;1.30;;;;;;;17.17;58.19;100097.25;5530446;32;35311;-68
2022/06/22 04:03:45;;;;;;;1.60;1.10;;;;;;;17.08;57.80;100104.75;5531483;32;34212;-68
2022/06/22 04:06:51;;;;;;;2.70;1.30;;;;;;;17.04;58.69;100092.00;5531145;32;34017;-68
2022/06/22 04:09:55;;;;;;;2.85;1.10;;;;;;;17.17;57.76;100081.19;5531116;32;34092;-68
2022/06/22 04:13:01;;;;;;;1.85;1.35;;;;;;;17.45;57.80;100072.69;5530986;32;33994;-68
2022/06/22 04:16:10;;;;;;;4.62;1.52;;;;;;;17.57;56.85;100063.69;5530407;32;34342;-68
2022/06/22 04:19:19;;;;;;;5.97;1.20;;;;;;;17.65;60.06;100058.09;5531021;32;34657;-68
2022/06/22 04:22:27;;;;;;;2.70;1.15;;;;;;;17.88;58.66;100052.06;5530835;32;34212;-68
2022/06/22 04:25:37;;;;;;;3.55;1.20;;;;;;;17.90;58.39;100047.31;5530764;32;34830;-68
2022/06/22 04:28:45;;;;;;;3.20;1.20;;;;;;;18.07;58.24;100048.34;5530781;32;33966;-68
2022/06/22 04:32:25;;;;;;;1.60;1.10;;;;;;;18.25;57.14;100061.75;5530875;32;34364;-69
2022/06/22 04:35:56;;;;;;;6.22;1.40;;;;;;;18.30;57.97;100060.28;5530726;32;34601;-69
2022/06/22 04:39:14;;;;;;;5.30;1.65;;;;;;;18.20;57.43;100058.91;5530791;32;34296;-67
2022/06/22 04:42:16;;;;;;;3.60;1.20;;;;;;;18.35;55.23;100077.34;5530762;32;34080;-67
2022/06/22 04:45:40;;;;;;;2.60;1.48;;;;;;;18.00;57.47;100065.59;5529982;32;34583;-68
2022/06/22 04:48:47;;;;;;;2.60;1.10;;;;;;;18.00;56.44;100074.47;5528742;32;32431;-68
2022/06/22 04:51:57;;;;;;;2.45;1.15;;;;;;;18.09;56.04;100075.81;5530559;32;34322;-67
2022/06/22 04:55:03;;;;;;;4.90;1.10;;;;;;;18.29;56.32;100078.25;5529901;32;33830;-68
2022/06/22 04:58:30;;;;;;;4.55;1.30;;;;;;;18.54;56.22;100075.50;5530362;32;34919;-68
2022/06/22 05:01:37;;;;;;;2.92;1.30;;;;;;;18.78;56.01;100077.22;5530224;32;33901;-68
2022/06/22 05:04:44;;;;;;;1.80;1.20;;;;;;;18.69;55.70;100083.16;5530307;32;34212;-69
2022/06/22 05:07:57;;;;;;;2.58;1.10;;;;;;;18.62;54.43;100092.13;5530471;32;33897;-68
2022/06/22 05:11:05;;;;;;;5.32;1.00;;;;;;;18.50;54.54;100093.06;5529884;32;34046;-68
2022/06/22 05:14:23;;;;;;;5.28;1.40;;;;;;;18.78;53.55;100098.72;5530405;32;33877;-68
2022/06/22 05:17:34;;;;;;;6.95;1.30;;;;;;;18.53;54.72;100109.59;5529972;32;34016;-67
2022/06/22 05:21:00;;;;;;;2.33;1.27;;;;;;;18.71;54.47;100118.66;5529976;32;33995;-68
2022/06/22 05:24:09;;;;;;;2.83;1.10;;;;;;;18.73;55.04;100108.53;5530127;32;34654;-68
2022/06/22 05:27:22;;;;;;;2.53;1.10;;;;;;;18.79;53.76;100115.66;5529784;32;34664;-68
2022/06/22 05:30:25;;;;;;;2.40;1.20;;;;;;;18.97;53.21;100124.50;5529274;32;34580;-68
2022/06/22 05:33:32;;;;;;;2.85;1.27;;;;;;;19.11;52.94;100125.13;5529486;32;34421;-67
2022/06/22 05:36:41;;;;;;;2.25;1.12;;;;;;;19.29;53.06;100124.22;5529318;32;33999;-68
2022/06/22 05:39:45;;;;;;;3.35;1.20;;;;;;;19.22;52.42;100127.00;5528728;32;34075;-68
2022/06/22 05:42:47;;;;;;;2.97;1.08;;;;;;;19.36;52.44;100119.59;5529048;32;34022;-67
2022/06/22 05:45:56;;;;;;;5.10;1.55;;;;;;;19.43;51.64;100123.78;5528731;32;34599;-68
2022/06/22 05:48:59;;;;;;;2.80;1.27;;;;;;;19.59;52.68;100135.78;5529030;32;34267;-68
2022/06/22 05:52:13;;;;;;;2.97;1.05;;;;;;;19.81;51.77;100136.84;5527594;32;34047;-68
2022/06/22 05:55:27;;;;;;;5.05;1.20;;;;;;;19.97;51.14;100140.72;5528647;32;34620;-69
2022/06/22 05:58:37;;;;;;;4.22;1.10;;;;;;;20.14;50.70;100143.53;5527572;32;32748;-67
2022/06/22 06:02:02;;;;;;;3.72;1.20;;;;;;;20.50;49.71;100132.47;5530081;32;34290;-67
2022/06/22 06:05:11;;;;;;;2.55;0.90;;;;;;;20.38;48.21;100132.50;5530160;32;34325;-68
2022/06/22 06:08:35;;;;;;;3.08;1.12;;;;;;;20.65;48.55;100142.75;5531555;32;34015;-69
2022/06/22 06:11:46;;;;;;;1.85;1.00;;;;;;;20.78;48.16;100147.84;5531475;32;33982;-68
2022/06/22 06:14:52;;;;;;;1.73;0.90;;;;;;;20.93;47.45;100145.44;5531251;32;33941;-68
2022/06/22 06:17:58;;;;;;;1.65;0.88;;;;;;;20.63;47.13;100136.75;5530923;32;34771;-68
2022/06/22 06:21:12;;;;;;;4.10;1.00;;;;;;;20.78;47.45;100142.44;5531211;32;34610;-68
2022/06/22 06:24:22;;;;;;;1.83;1.00;;;;;;;20.88;46.97;100145.34;5531366;32;34176;-68
2022/06/22 06:27:36;;;;;;;1.77;1.00;;;;;;;21.31;46.43;100152.91;5531396;32;33914;-67
2022/06/22 06:30:50;;;;;;;1.98;0.80;;;;;;;21.42;44.73;100152.03;5531288;32;34121;-70
2022/06/22 06:33:56;;;;;;;1.80;1.00;;;;;;;21.14;44.23;100149.37;5531948;32;34261;-68
2022/06/22 06:37:09;;;;;;;2.62;1.10;;;;;;;21.48;44.48;100151.06;5531782;32;34156;-68
2022/06/22 06:40:22;;;;;;;1.70;1.05;;;;;;;21.78;44.11;100148.03;5530973;32;33977;-68
2022/06/22 06:43:41;;;;;;;3.75;1.10;;;;;;;22.10;43.24;100143.69;5531421;32;34048;-69
2022/06/22 06:46:57;;;;;;;5.00;0.88;;;;;;;21.89;43.25;100149.00;5531900;32;34159;-68
2022/06/22 06:50:28;;;;;;;1.48;0.70;;;;;;;22.17;42.64;100143.50;5530511;32;34747;-69
2022/06/22 06:53:41;;;;;;;2.53;1.00;;;;;;;22.10;42.77;100154.50;5531268;32;33532;-69
2022/06/22 06:57:16;;;;;;;11.38;1.17;;;;;;;21.62;42.92;100152.37;5531508;32;33925;-67
2022/06/22 07:00:24;;;;;;;1.13;0.87;;;;;;;22.02;43.03;100141.41;5531587;32;33995;-70
2022/06/22 07:03:39;;;;;;;2.42;0.90;;;;;;;22.01;42.94;100122.75;5531474;32;35186;-69
2022/06/22 07:06:45;;;;;;;4.12;1.00;;;;;;;22.39;42.01;100135.41;5531428;32;34921;-69
2022/06/22 07:09:51;;;;;;;5.05;1.12;;;;;;;22.42;41.63;100135.72;5531661;32;34054;-67
2022/06/22 07:12:58;;;;;;;1.52;0.90;;;;;;;21.74;44.17;100130.66;5531079;32;33903;-68
2022/06/22 07:16:14;;;;;;;4.20;0.90;;;;;;;22.30;43.10;100116.13;5531768;32;34593;-67
2022/06/22 07:19:26;;;;;;;3.00;1.08;;;;;;;22.39;41.31;100128.13;5531500;32;35247;-67
2022/06/22 07:22:35;;;;;;;2.03;0.70;;;;;;;22.76;41.08;100122.09;5531046;32;34604;-67
2022/06/22 07:25:46;;;;;;;2.33;0.90;;;;;;;22.97;41.28;100129.34;5530538;32;34685;-68
2022/06/22 07:28:56;;;;;;;3.30;0.73;;;;;;;22.77;41.18;100129.13;5531625;32;33941;-67
2022/06/22 07:32:15;;;;;;;2.53;0.70;;;;;;;23.35;40.51;100125.66;5531534;32;34052;-68
2022/06/22 07:35:32;;;;;;;1.65;0.70;;;;;;;23.39;39.70;100115.94;5531303;32;34672;-67
2022/06/22 07:38:51;;;;;;;2.80;0.85;;;;;;;23.13;39.06;100114.09;5531230;32;34934;-68
2022/06/22 07:41:54;;;;;;;3.20;0.90;;;;;;;22.86;40.62;100114.09;5531309;32;34124;-67
2022/06/22 07:44:57;;;;;;;1.80;0.80;;;;;;;23.17;39.99;100115.22;5531061;32;33973;-69
2022/06/22 07:48:10;;;;;;;3.22;0.80;;;;;;;23.86;39.01;100104.41;5531199;32;34537;-68
2022/06/22 07:51:28;;;;;;;1.55;0.80;;;;;;;24.43;38.21;100099.88;5531554;32;34286;-68
2022/06/22 07:54:39;;;;;;;0.93;0.50;;;;;;;25.68;35.63;100102.25;5531131;32;34037;-69
2022/06/22 07:57:53;;;;;;;1.35;0.85;;;;;;;26.02;34.86;100106.00;5530810;32;34060;-69
2022/06/22 08:01:05;;;;;;;1.95;0.90;;;;;;;25.22;35.81;100109.59;5530630;32;35261;-69
2022/06/22 08:04:36;;;;;;;2.55;1.00;;;;;;;25.16;35.83;100097.91;5531015;32;34558;-68
2022/06/22 08:07:47;;;;;;;3.80;0.60;;;;;;;26.64;33.16;100101.97;5530691;32;34097;-68
2022/06/22 08:11:14;;;;;;;1.10;0.80;;;;;;;26.74;30.35;100100.00;5530380;32;34824;-69
2022/06/22 08:14:26;;;;;;;0.98;0.60;;;;;;;26.54;28.87;100091.94;5530750;32;33944;-69
2022/06/22 08:18:01;;;;;;;1.30;0.77;;;;;;;27.15;28.80;100092.44;5530427;32;34580;-68
2022/06/22 08:21:06;;;;;;;1.27;0.60;;;;;;;28.59;27.17;100091.50;5529675;32;32822;-69
2022/06/22 08:24:11;;;;;;;2.72;0.70;;;;;;;28.65;27.34;100090.34;5530287;32;34275;-68
2022/06/22 08:27:18;;;;;;;2.70;0.50;;;;;;;28.75;25.86;100089.41;5530661;32;34596;-69
2022/06/22 08:30:23;;;;;;;1.15;0.57;;;;;;;29.34;24.78;100097.00;5531087;32;34747;-68
2022/06/22 08:33:52;;;;;;;2.35;0.70;;;;;;;29.31;24.79;100090.22;5530858;32;33835;-69
2022/06/22 08:37:06;;;;;;;1.52;0.50;;;;;;;30.94;23.59;100083.16;5516639;32;32645;-69
2022/06/22 08:40:32;;;;;;;1.58;0.52;;;;;;;31.56;23.25;100079.78;5530129;32;34701;-69
2022/06/22 08:43:42;;;;;;;2.97;0.60;;;;;;;29.05;24.67;100083.50;5529784;32;34643;-68
2022/06/22 08:47:13;;;;;;;1.20;0.50;;;;;;;29.16;25.07;100075.94;5529991;32;34267;-70
2022/06/22 08:50:34;;;;;;;0.93;0.55;;;;;;;30.71;23.46;100077.97;5529453;32;34303;-69
2022/06/22 08:53:59;;;;;;;0.85;0.50;;;;;;;31.66;23.14;100083.06;5530086;32;34040;-69
2022/06/22 08:57:44;;;;;;;3.53;0.60;;;;;;;31.42;23.83;100091.59;5529391;32;33953;-69
2022/06/22 09:01:02;;;;;;;3.12;1.50;;;;;;;31.02;23.34;100087.94;5529647;32;33948;-69
2022/06/22 09:04:11;;;;;;;;;;;;;;;32.24;21.81;100090.28;5529465;32;32755;-70
2022/06/22 09:07:26;;;;;;;0.90;0.50;;;;;;;32.04;22.30;100096.31;5530247;32;34037;-68
2022/06/22 09:11:08;;;;;;;1.00;0.50;;;;;;;33.46;20.18;100101.06;5529485;32;34084;-68
2022/06/22 09:14:32;;;;;;;2.28;1.00;;;;;;;33.82;20.29;100089.69;5529973;32;34083;-68
2022/06/22 09:17:40;;;;;;;1.77;0.70;;;;;;;34.63;19.06;100093.00;5528834;32;32938;-69
2022/06/22 09:20:52;;;;;;;3.25;0.70;;;;;;;35.03;18.53;100087.03;5530060;32;33798;-69
2022/06/22 09:24:13;;;;;;;2.33;0.60;;;;;;;33.76;20.54;100083.53;5529980;32;34038;-67
2022/06/22 09:27:19;;;;;;;0.95;0.40;;;;;;;34.78;18.75;100077.84;5529332;32;34505;-68
2022/06/22 09:30:25;;;;;;;2.70;0.70;;;;;;;35.57;17.50;100080.38;5529625;32;35170;-68
2022/06/22 09:33:49;;;;;;;1.75;0.70;;;;;;;35.74;17.53;100088.47;5529808;32;33946;-68
2022/06/22 09:37:11;;;;;;;2.33;0.52;;;;;;;34.37;19.15;100082.13;5532253;32;34442;-68
2022/06/22 09:40:25;;;;;;;1.92;0.62;;;;;;;34.31;18.55;100082.69;5532506;32;34002;-69
2022/06/22 09:43:34;;;;;;;1.55;0.65;;;;;;;35.31;17.88;100082.59;5531148;32;34002;-69
2022/06/22 09:47:04;;;;;;;1.20;0.50;;;;;;;33.95;19.30;100066.63;5531894;32;34477;-69
2022/06/22 09:50:16;;;;;;;0.85;0.50;;;;;;;34.88;17.59;100071.94;5532622;32;35349;-69
2022/06/22 09:53:43;;;;;;;1.45;0.60;;;;;;;35.46;16.99;100061.81;5532139;32;33554;-68
2022/06/22 09:57:04;;;;;;;3.00;0.70;;;;;;;36.44;16.06;100058.00;5530850;32;34217;-68
2022/06/22 10:00:29;;;;;;;0.95;0.50;;;;;;;36.80;17.86;100060.69;5531699;32;32761;-70
2022/06/22 10:04:00;;;;;;;2.40;0.70;;;;;;;37.05;16.21;100055.06;5532112;32;34778;-68
2022/06/22 10:07:09;;;;;;;1.35;0.60;;;;;;;37.35;15.67;100053.56;5531512;32;33969;-70
2022/06/22 10:10:26;;;;;;;4.50;0.80;;;;;;;38.24;15.25;100054.69;5531874;32;34082;-69
2022/06/22 10:13:42;;;;;;;1.35;0.60;;;;;;;35.57;16.91;100050.03;5531661;32;33999;-70
2022/06/22 10:17:13;;;;;;;1.37;0.60;;;;;;;35.83;17.39;100035.91;5532102;32;34018;-70
2022/06/22 10:20:34;;;;;;;1.35;0.70;;;;;;;36.74;15.19;100051.06;5531732;32;34759;-68
2022/06/22 10:23:42;;;;;;;1.85;0.68;;;;;;;37.25;15.03;100041.06;5532208;32;34180;-67
2022/06/22 10:27:23;;;;;;;0.57;0.40;;;;;;;35.88;15.78;100046.72;5532045;32;34037;-68
2022/06/22 10:30:43;;;;;;;0.88;0.50;;;;;;;35.66;15.87;100049.94;5531709;32;35278;-68
2022/06/22 10:34:00;;;;;;;1.12;0.50;;;;;;;35.72;15.84;100041.09;5531683;32;33902;-68
2022/06/22 10:37:28;;;;;;;1.55;0.90;;;;;;;37.09;15.50;100053.25;5531748;32;34734;-68
2022/06/22 10:48:07;;;;;;;1.58;0.60;;;;;;;35.62;16.55;100062.78;5530515;32;34653;-68
2022/06/22 10:51:13;;;;;;;4.65;0.50;;;;;;;38.00;15.35;100062.44;5531876;32;34575;-70
2022/06/22 10:54:30;;;;;;;1.48;0.50;;;;;;;40.32;12.81;100051.59;5530468;32;32888;-69
2022/06/22 10:57:35;;;;;;;1.63;0.50;;;;;;;40.06;13.91;100054.34;5531575;32;34847;-69
2022/06/22 11:01:15;;;;;;;2.75;0.50;;;;;;;39.10;13.46;100060.94;5531947;32;34685;-69
2022/06/22 11:04:33;;;;;;;0.75;0.60;;;;;;;38.47;14.54;100054.84;5531054;32;33918;-69
2022/06/22 11:07:44;;;;;;;1.12;0.45;;;;;;;39.50;12.44;100055.00;5531341;32;33993;-69
2022/06/22 11:10:53;;;;;;;2.53;0.50;;;;;;;36.48;14.74;100056.97;5531703;32;33964;-69
2022/06/22 11:14:15;;;;;;;0.75;0.50;;;;;;;36.71;14.88;100048.97;5530944;32;34308;-69
2022/06/22 11:17:46;;;;;;;1.10;0.45;;;;;;;37.58;13.57;100048.25;5531472;32;34041;-69
2022/06/22 11:20:49;;;;;;;0.60;0.40;;;;;;;39.52;12.61;100047.06;5531452;32;33952;-69
2022/06/22 11:24:18;;;;;;;1.05;0.30;;;;;;;37.19;14.13;100049.97;5531709;32;34014;-69
2022/06/22 11:31:37;;;;;;;0.65;0.40;;;;;;;36.87;13.85;100054.59;5531358;32;34733;-69
2022/06/22 11:34:52;;;;;;;1.87;0.50;;;;;;;37.43;13.20;100047.06;5530847;32;34671;-68
2022/06/22 11:38:35;;;;;;;0.70;0.40;;;;;;;35.29;14.76;100036.03;5530383;32;35188;-69
2022/06/22 11:41:55;;;;;;;2.30;0.60;;;;;;;38.22;12.84;100034.03;5531154;32;34724;-68
2022/06/22 11:49:01;;;;;;;1.08;0.50;;;;;;;38.04;12.93;100027.28;5530551;32;32625;-69
2022/06/22 11:52:27;;;;;;;1.20;0.40;;;;;;;38.41;12.58;100014.69;5530447;32;33817;-68
2022/06/22 11:55:41;;;;;;;0.57;0.45;;;;;;;38.04;12.27;100016.22;5530282;32;34229;-68
2022/06/22 11:59:11;;;;;;;3.92;0.45;;;;;;;38.67;11.76;100014.06;5530578;32;34619;-69
2022/06/22 12:02:47;;;;;;;2.03;0.68;;;;;;;38.78;12.35;100003.97;5530834;32;34686;-71
2022/06/22 12:06:02;;;;;;;3.08;0.43;;;;;;;36.72;13.48;100005.56;5530349;32;34264;-68
2022/06/22 12:09:31;;;;;;;5.37;0.82;;;;;;;38.64;12.81;100015.59;5530864;32;34089;-69
2022/06/22 12:13:02;;;;;;;1.37;0.50;;;;;;;40.48;11.46;100011.69;5531125;32;34014;-71
2022/06/22 12:16:29;;;;;;;1.08;0.60;;;;;;;39.10;11.93;99999.09;5529904;32;32518;-70
2022/06/22 12:19:50;;;;;;;1.65;0.62;;;;;;;38.07;13.18;100002.44;5530848;32;34035;-70
2022/06/22 12:23:02;;;;;;;1.65;0.47;;;;;;;39.93;12.24;99991.84;5530338;32;33472;-69
2022/06/22 12:26:34;;;;;;;1.23;0.40;;;;;;;39.80;12.16;99994.00;5530670;32;35198;-69
2022/06/22 12:29:46;;;;;;;1.52;0.50;;;;;;;42.17;10.84;99992.31;5531155;32;34523;-68
2022/06/22 12:32:55;;;;;;;0.68;0.40;;;;;;;41.22;11.17;99998.69;5531207;32;33933;-69
2022/06/22 12:36:14;;;;;;;0.68;0.40;;;;;;;38.27;12.27;99993.00;5529899;32;32633;-67
2022/06/22 12:39:30;;;;;;;1.10;0.40;;;;;;;38.71;11.91;99976.13;5530560;32;34193;-68
2022/06/22 12:42:57;;;;;;;1.85;0.40;;;;;;;41.51;10.39;99983.88;5530355;32;34802;-70
2022/06/22 12:46:13;;;;;;;1.02;0.50;;;;;;;42.94;10.08;99982.72;5530721;32;33923;-68
2022/06/22 12:49:37;;;;;;;0.52;0.47;;;;;;;40.53;11.14;99978.78;5530733;32;35193;-66
2022/06/22 12:52:51;;;;;;;0.77;0.47;;;;;;;41.28;10.86;99969.31;5530576;32;34031;-69
2022/06/22 12:56:01;;;;;;;0.32;0.30;;;;;;;42.21;10.53;99956.91;5529648;32;32430;-68
2022/06/22 12:59:16;;;;;;;3.30;0.60;;;;;;;41.87;10.41;99961.88;5530646;32;33957;-68
2022/06/22 13:02:26;;;;;;;0.65;0.40;;;;;;;41.75;11.16;99962.16;5530598;32;33950;-68
2022/06/22 13:05:32;;;;;;;1.45;0.40;;;;;;;42.24;10.47;99964.47;5530803;32;35193;-69
2022/06/22 13:08:35;;;;;;;0.80;0.40;;;;;;;43.10;9.98;99956.03;5529602;32;33865;-69
2022/06/22 13:11:40;;;;;;;1.40;0.40;;;;;;;40.70;11.47;99952.41;5529846;32;34201;-69
2022/06/22 13:14:53;;;;;;;0.85;0.40;;;;;;;39.40;12.19;99947.34;5530110;32;34076;-67
2022/06/22 13:18:02;;;;;;;1.23;0.47;;;;;;;42.02;10.67;99946.84;5530122;32;34806;-67
2022/06/22 13:21:22;;;;;;;1.50;0.57;;;;;;;40.71;11.61;99946.47;5529192;32;32673;-70
2022/06/22 13:24:35;;;;;;;1.58;0.50;;;;;;;38.75;13.13;99937.38;5529677;32;33943;-69
2022/06/22 13:27:48;;;;;;;0.88;0.50;;;;;;;40.99;11.64;99936.81;5530178;32;34023;-69
2022/06/22 13:30:56;;;;;;;1.25;0.57;;;;;;;41.08;11.87;99926.19;5529870;32;33989;-68
2022/06/22 13:34:14;;;;;;;2.90;0.50;;;;;;;39.84;12.49;99925.44;5529673;32;34054;-68
2022/06/22 13:37:39;;;;;;;1.73;0.75;;;;;;;41.70;11.66;99915.16;5529469;32;33937;-68
2022/06/22 13:40:47;;;;;;;3.53;0.70;;;;;;;42.62;10.62;99933.16;5528961;32;32509;-69
2022/06/22 13:44:25;;;;;;;4.40;0.50;;;;;;;41.75;11.53;99923.16;5529394;32;35607;-69
2022/06/22 13:47:40;;;;;;;0.40;0.40;;;;;;;41.92;11.50;99934.44;5521728;32;34389;-69
2022/06/22 13:51:44;;;;;;;1.70;0.88;;;;;;;42.28;10.84;99920.69;5528642;32;32811;-69
2022/06/22 13:55:18;;;;;;;0.85;0.60;;;;;;;42.80;11.29;99919.28;5451424;32;34413;-68
2022/06/22 13:58:32;;;;;;;7.03;0.68;;;;;;;41.22;12.21;99912.38;5438898;32;34587;-69
2022/06/22 14:01:39;;;;;;;1.02;0.50;;;;;;;42.75;11.59;99908.53;5451194;32;33320;-69
2022/06/22 14:04:53;;;;;;;1.50;0.60;;;;;;;41.37;11.63;99916.09;5451172;32;34040;-69
2022/06/22 14:08:13;;;;;;;1.05;0.43;;;;;;;40.75;12.30;99904.78;5449703;32;32559;-69
2022/06/22 14:11:30;;;;;;;2.72;0.60;;;;;;;39.15;13.24;99898.91;5451039;32;35078;-69
2022/06/22 14:14:40;;;;;;;1.58;0.60;;;;;;;41.04;12.20;99898.34;5450945;32;34029;-67
2022/06/22 14:17:49;;;;;;;23.80;1.37;;;;;;;38.69;14.07;99886.94;5450396;32;34606;-68
2022/06/22 14:21:13;;;;;;;6.57;0.55;;;;;;;37.72;15.02;99904.66;5439392;32;34063;-68
2022/06/22 14:24:33;;;;;;;0.93;0.60;;;;;;;39.28;13.14;99893.94;5452854;32;34375;-69
2022/06/22 14:27:41;;;;;;;1.37;0.57;;;;;;;37.84;14.71;99904.56;5465527;32;33381;-69
2022/06/22 14:31:00;;;;;;;1.58;0.60;;;;;;;36.47;16.13;99892.31;5531071;32;34242;-66
2022/06/22 14:34:22;;;;;;;;;;;;;;;34.94;17.36;99888.66;5531761;32;35336;-67
2022/06/22 14:37:49;;;;;;;1.27;0.70;;;;;;;34.68;17.62;99894.44;5531004;32;34368;-68
2022/06/22 14:41:18;;;;;;;2.78;0.70;;;;;;;35.25;18.10;99886.16;5531127;32;34361;-69
2022/06/22 14:45:10;;;;;;;1.12;0.60;;;;;;;35.85;17.19;99887.31;5530984;32;34626;-68
2022/06/22 14:48:35;;;;;;;2.05;0.75;;;;;;;34.29;18.18;99878.41;5460774;32;34633;-70
2022/06/22 14:51:46;;;;;;;2.90;0.70;;;;;;;35.20;17.13;99874.56;5530474;32;34587;-67
2022/06/22 14:55:03;;;;;;;3.80;0.70;;;;;;;37.56;15.67;99881.75;5530877;32;35168;-67
2022/06/22 14:58:35;;;;;;;2.22;0.80;;;;;;;36.28;16.40;99875.59;5531007;32;34109;-68
2022/06/22 15:01:47;;;;;;;0.70;0.50;;;;;;;36.47;16.37;99863.87;5530346;32;34658;-68
2022/06/22 15:05:03;;;;;;;1.30;0.70;;;;;;;37.20;15.44;99866.22;5530365;32;32446;-68
2022/06/22 15:08:21;;;;;;;1.10;0.70;;;;;;;36.39;16.18;99859.31;5529892;32;34505;-69
2022/06/22 15:15:14;;;;;;;1.33;0.60;;;;;;;39.07;14.32;99847.25;5530932;32;34625;-67
2022/06/22 15:18:53;;;;;;;1.67;0.60;;;;;;;36.19;16.85;99841.78;5531145;32;33963;-67
2022/06/22 15:22:04;;;;;;;0.90;0.70;;;;;;;35.99;17.27;99845.53;5530807;32;34114;-68
2022/06/22 15:25:42;;;;;;;3.37;0.82;;;;;;;33.65;19.35;99834.66;5529822;32;33625;-68
2022/06/22 15:28:54;;;;;;;2.85;1.30;;;;;;;32.53;21.07;99848.03;5531080;32;34565;-69
2022/06/22 15:32:01;;;;;;;2.17;0.62;;;;;;;31.41;21.93;99824.06;5529786;32;35112;-67
2022/06/22 15:35:10;;;;;;;1.08;0.70;;;;;;;30.61;23.36;99835.31;5530855;32;34453;-67